Time;durP1;ratioP1;P1;durP2;ratioP2;P2;SDS_P1;SDS_P2;PMS_P1;PMS_P2;Temp;Humidity;BMP_temperature;BMP_pressure;BME280_temperature;BME280_humidity;BME280_pressure;Samples;Min_cycle;Max_cycle;Signal;HPM_P1;HPM_P2
2020/12/31 00:02:09;;;;;;;0.65;0.20;;;17.60;54.50;;;;;;4856011;29;20054;-61
2020/12/31 00:04:36;;;;;;;0.17;0.10;;;17.60;54.50;;;;;;4858325;29;20037;-61
2020/12/31 00:07:03;;;;;;;0.20;0.10;;;17.70;54.60;;;;;;4858726;29;20141;-62
2020/12/31 00:09:29;;;;;;;1.48;0.10;;;17.60;54.60;;;;;;4857607;29;20068;-61
2020/12/31 00:11:56;;;;;;;0.47;0.10;;;17.60;54.60;;;;;;4857717;29;20084;-64
2020/12/31 00:14:22;;;;;;;0.43;0.20;;;17.60;54.50;;;;;;4858055;29;20053;-61
2020/12/31 00:16:50;;;;;;;1.02;0.10;;;17.60;54.50;;;;;;4857644;29;20057;-61
2020/12/31 00:19:16;;;;;;;1.95;0.73;;;17.60;54.50;;;;;;4859062;29;20141;-61
2020/12/31 00:21:43;;;;;;;1.80;0.10;;;17.70;54.60;;;;;;4857292;29;20166;-61
2020/12/31 00:24:09;;;;;;;0.47;0.10;;;17.70;54.60;;;;;;4857765;29;20105;-60
2020/12/31 00:26:36;;;;;;;0.55;0.08;;;17.60;54.60;;;;;;4857655;29;20041;-61
2020/12/31 00:29:02;;;;;;;1.27;0.10;;;17.60;54.60;;;;;;4857816;29;20065;-60
2020/12/31 00:31:29;;;;;;;4.22;0.10;;;17.60;54.60;;;;;;4841376;29;20073;-62
2020/12/31 00:33:56;;;;;;;0.38;0.10;;;17.60;54.70;;;;;;4858304;29;20049;-61
2020/12/31 00:36:23;;;;;;;2.05;0.00;;;17.60;54.50;;;;;;4857027;29;20057;-62
2020/12/31 00:38:51;;;;;;;0.20;0.00;;;17.60;54.60;;;;;;4840801;29;20076;-60
2020/12/31 00:41:19;;;;;;;6.03;0.10;;;17.70;54.70;;;;;;4857120;29;20144;-61
2020/12/31 00:43:46;;;;;;;1.10;0.10;;;17.60;54.50;;;;;;4856747;29;20152;-61
2020/12/31 00:46:12;;;;;;;0.28;0.10;;;17.60;54.50;;;;;;4857543;29;20111;-63
2020/12/31 00:48:39;;;;;;;0.75;0.10;;;17.60;54.60;;;;;;4856579;29;20073;-60
2020/12/31 00:51:07;;;;;;;0.45;0.10;;;17.60;54.60;;;;;;4855987;29;20042;-61
2020/12/31 00:53:33;;;;;;;0.38;0.10;;;17.60;54.60;;;;;;4839815;29;20049;-61
2020/12/31 00:56:01;;;;;;;0.28;0.10;;;17.60;54.60;;;;;;4839908;29;20129;-59
2020/12/31 00:58:28;;;;;;;0.95;0.10;;;17.60;54.50;;;;;;4826030;29;20049;-60
2020/12/31 01:00:56;;;;;;;0.47;0.15;;;17.60;54.60;;;;;;4840214;29;20050;-59
2020/12/31 01:03:22;;;;;;;0.57;0.10;;;17.60;54.70;;;;;;4839754;29;20049;-61
2020/12/31 01:05:49;;;;;;;0.65;0.20;;;17.60;54.70;;;;;;4856241;29;20054;-59
2020/12/31 01:08:17;;;;;;;1.63;0.10;;;17.60;54.70;;;;;;4851114;29;20065;-60
2020/12/31 01:10:43;;;;;;;0.10;0.00;;;17.70;54.70;;;;;;4850687;29;20152;-64
2020/12/31 01:13:10;;;;;;;1.25;0.10;;;17.60;54.70;;;;;;4857693;29;20536;-61
2020/12/31 01:15:37;;;;;;;0.68;0.03;;;17.60;54.70;;;;;;4855944;29;20046;-61
2020/12/31 01:18:03;;;;;;;0.30;0.10;;;17.60;54.70;;;;;;4856345;29;20400;-61
2020/12/31 01:20:30;;;;;;;0.75;0.00;;;17.60;54.60;;;;;;4856486;29;20193;-60
2020/12/31 01:22:56;;;;;;;0.10;0.00;;;17.60;54.70;;;;;;4856019;29;20574;-61
2020/12/31 01:25:24;;;;;;;0.47;0.10;;;17.60;54.70;;;;;;4857824;29;20125;-62
2020/12/31 01:27:50;;;;;;;0.35;0.10;;;17.60;54.70;;;;;;4856111;29;20061;-61
2020/12/31 01:30:17;;;;;;;0.35;0.00;;;17.60;54.70;;;;;;4855814;29;20425;-61
2020/12/31 01:32:43;;;;;;;0.10;0.00;;;17.60;54.70;;;;;;4856295;29;20459;-61
2020/12/31 01:35:10;;;;;;;0.10;0.00;;;17.60;54.70;;;;;;4856263;29;20130;-60
2020/12/31 01:37:37;;;;;;;0.13;0.03;;;17.60;54.70;;;;;;4856082;29;20054;-60
2020/12/31 01:40:03;;;;;;;0.10;0.00;;;17.60;54.70;;;;;;4856868;29;20137;-60
2020/12/31 01:42:31;;;;;;;0.10;0.00;;;17.60;54.70;;;;;;4855860;29;20061;-61
2020/12/31 01:44:58;;;;;;;0.65;0.00;;;17.60;54.70;;;;;;4855777;29;20041;-60
2020/12/31 01:47:25;;;;;;;1.35;0.00;;;17.60;54.70;;;;;;4855913;29;20057;-61
2020/12/31 01:49:53;;;;;;;0.00;0.00;;;17.60;54.70;;;;;;4856169;29;20121;-63
2020/12/31 01:52:20;;;;;;;0.82;0.00;;;17.60;54.60;;;;;;4857176;29;20058;-61
2020/12/31 01:54:47;;;;;;;0.30;0.30;;;17.60;54.70;;;;;;4855753;29;20045;-61
2020/12/31 01:57:14;;;;;;;0.57;0.00;;;17.60;54.80;;;;;;4855794;29;20053;-61
2020/12/31 01:59:42;;;;;;;0.40;0.00;;;17.60;54.70;;;;;;4855661;29;20129;-59
2020/12/31 02:02:09;;;;;;;0.00;0.00;;;17.60;54.70;;;;;;4853090;29;20053;-58
2020/12/31 02:04:36;;;;;;;0.43;0.00;;;17.60;54.70;;;;;;4856073;29;20052;-60
2020/12/31 02:07:03;;;;;;;0.30;0.00;;;17.60;54.80;;;;;;4840322;29;20053;-59
2020/12/31 02:09:30;;;;;;;0.45;0.00;;;17.60;54.70;;;;;;4853318;29;20438;-63
2020/12/31 02:12:02;;;;;;;0.17;0.00;;;17.60;54.80;;;;;;4855734;29;20090;-60
2020/12/31 02:14:29;;;;;;;0.28;0.05;;;17.60;54.70;;;;;;4855519;29;20073;-60
2020/12/31 02:16:57;;;;;;;0.77;0.00;;;17.60;54.80;;;;;;4854044;29;20050;-59
2020/12/31 02:19:24;;;;;;;0.35;0.00;;;17.60;54.90;;;;;;4856338;29;20057;-61
2020/12/31 02:21:52;;;;;;;1.55;0.00;;;17.60;54.90;;;;;;4854974;29;20136;-61
2020/12/31 02:24:19;;;;;;;0.85;0.10;;;17.60;54.80;;;;;;4855515;29;20057;-60
2020/12/31 02:26:48;;;;;;;0.10;0.10;;;17.60;54.80;;;;;;4855474;29;20061;-61
2020/12/31 02:29:16;;;;;;;0.00;0.00;;;17.60;54.80;;;;;;4855572;29;20077;-61
2020/12/31 02:31:45;;;;;;;0.00;0.00;;;17.60;54.80;;;;;;4855854;29;20046;-62
2020/12/31 02:34:12;;;;;;;0.10;0.00;;;17.60;54.80;;;;;;4855510;29;20053;-61
2020/12/31 02:36:39;;;;;;;0.65;0.00;;;17.60;54.80;;;;;;4855541;29;20049;-61
2020/12/31 02:39:09;;;;;;;1.33;0.00;;;17.60;54.80;;;;;;4855289;29;20064;-61
2020/12/31 02:41:37;;;;;;;0.08;0.00;;;17.60;54.80;;;;;;4855391;29;20125;-60
2020/12/31 02:44:04;;;;;;;0.70;0.00;;;17.60;54.80;;;;;;4855148;29;20065;-61
2020/12/31 02:46:32;;;;;;;1.55;0.00;;;17.60;54.70;;;;;;4855923;29;20484;-61
2020/12/31 02:48:58;;;;;;;0.00;0.00;;;17.60;54.80;;;;;;4837390;29;20050;-61
2020/12/31 02:51:25;;;;;;;0.00;0.00;;;17.60;55.40;;;;;;4855057;29;20061;-61
2020/12/31 02:53:52;;;;;;;0.45;0.00;;;17.60;54.80;;;;;;4855309;29;20840;-60
2020/12/31 02:56:21;;;;;;;0.05;0.00;;;17.60;54.80;;;;;;4855149;29;20081;-62
2020/12/31 02:58:48;;;;;;;0.30;0.10;;;17.60;54.80;;;;;;4855411;29;20061;-62
2020/12/31 03:01:15;;;;;;;0.05;0.00;;;17.60;54.80;;;;;;4856384;29;20049;-62
2020/12/31 03:03:42;;;;;;;0.10;0.10;;;17.60;54.80;;;;;;4854919;29;20050;-61
2020/12/31 03:06:10;;;;;;;0.03;0.03;;;17.60;54.80;;;;;;4854699;29;20045;-61
2020/12/31 03:08:37;;;;;;;0.70;0.00;;;17.60;54.80;;;;;;4855029;29;20153;-62
2020/12/31 03:11:05;;;;;;;0.00;0.00;;;17.60;54.80;;;;;;4855044;29;20134;-63
2020/12/31 03:13:33;;;;;;;0.00;0.00;;;17.60;54.80;;;;;;4855837;29;20069;-62
2020/12/31 03:15:59;;;;;;;0.20;0.00;;;17.60;54.80;;;;;;4859197;29;20045;-62
2020/12/31 03:18:26;;;;;;;0.00;0.00;;;17.60;54.80;;;;;;4858568;29;20121;-64
2020/12/31 03:20:53;;;;;;;0.63;0.00;;;17.60;54.80;;;;;;4858374;29;20064;-62
2020/12/31 03:23:19;;;;;;;0.82;0.00;;;17.60;54.80;;;;;;4858159;29;20049;-62
2020/12/31 03:25:47;;;;;;;0.10;0.00;;;17.60;54.90;;;;;;4858110;29;20041;-61
2020/12/31 03:28:14;;;;;;;0.00;0.00;;;17.60;54.90;;;;;;4843199;29;20069;-63
2020/12/31 03:30:42;;;;;;;0.35;0.00;;;17.60;54.90;;;;;;4858274;29;20566;-62
2020/12/31 03:33:12;;;;;;;0.52;0.00;;;17.60;54.90;;;;;;4858249;29;20046;-61
2020/12/31 03:35:39;;;;;;;0.52;0.00;;;17.60;54.90;;;;;;4856465;29;20057;-64
2020/12/31 03:38:06;;;;;;;2.55;0.00;;;17.70;54.90;;;;;;4857824;29;20076;-61
2020/12/31 03:40:33;;;;;;;0.10;0.00;;;17.60;54.90;;;;;;4858257;29;20104;-62
2020/12/31 03:42:59;;;;;;;0.00;0.00;;;17.60;54.80;;;;;;4859255;29;20072;-61
2020/12/31 03:45:26;;;;;;;0.30;0.00;;;17.60;54.90;;;;;;4857975;29;20534;-63
2020/12/31 03:47:54;;;;;;;1.40;0.00;;;17.60;54.80;;;;;;4857965;29;20049;-63
2020/12/31 03:50:21;;;;;;;0.00;0.00;;;17.60;54.80;;;;;;4858027;29;20037;-61
2020/12/31 03:52:48;;;;;;;0.03;0.00;;;17.60;54.80;;;;;;4841353;29;20609;-61
2020/12/31 03:55:15;;;;;;;0.30;0.00;;;17.60;54.80;;;;;;4858848;29;20045;-61
2020/12/31 03:57:41;;;;;;;0.68;0.10;;;17.60;54.80;;;;;;4857768;29;20049;-61
2020/12/31 04:00:08;;;;;;;0.20;0.20;;;17.60;54.70;;;;;;4857816;29;20057;-66
2020/12/31 04:02:34;;;;;;;0.08;0.00;;;17.70;54.80;;;;;;4857825;29;20049;-61
2020/12/31 04:05:02;;;;;;;0.05;0.00;;;17.60;54.80;;;;;;4857930;29;20570;-61
2020/12/31 04:07:30;;;;;;;0.10;0.03;;;17.60;54.80;;;;;;4858130;29;20064;-61
2020/12/31 04:09:56;;;;;;;0.10;0.00;;;17.60;54.80;;;;;;4858053;29;20565;-61
2020/12/31 04:12:24;;;;;;;0.00;0.00;;;17.60;54.80;;;;;;4857478;29;20430;-63
2020/12/31 04:14:50;;;;;;;0.00;0.00;;;17.60;54.80;;;;;;4857432;29;20045;-61
2020/12/31 04:17:17;;;;;;;0.08;0.00;;;17.60;54.80;;;;;;4857450;29;20423;-62
2020/12/31 04:19:44;;;;;;;0.10;0.00;;;17.60;54.70;;;;;;4857425;29;20132;-63
2020/12/31 04:22:12;;;;;;;0.03;0.00;;;17.60;54.80;;;;;;4858379;29;20132;-63
2020/12/31 04:24:38;;;;;;;0.10;0.00;;;17.60;54.80;;;;;;4853811;29;20470;-61
2020/12/31 04:27:05;;;;;;;0.10;0.10;;;17.60;54.80;;;;;;4855163;29;20537;-62
2020/12/31 04:29:31;;;;;;;0.10;0.00;;;17.60;54.80;;;;;;4857517;29;20132;-62
2020/12/31 04:31:58;;;;;;;1.77;0.10;;;17.60;54.80;;;;;;4857137;29;20284;-61
2020/12/31 04:34:25;;;;;;;0.10;0.10;;;17.60;54.80;;;;;;4856972;29;20083;-61
2020/12/31 04:36:51;;;;;;;0.00;0.00;;;17.60;54.80;;;;;;4856716;29;20042;-61
2020/12/31 04:39:19;;;;;;;0.00;0.00;;;17.60;54.80;;;;;;4856636;29;20452;-61
2020/12/31 04:41:45;;;;;;;0.00;0.00;;;17.60;54.90;;;;;;4856801;29;20077;-62
2020/12/31 04:44:15;;;;;;;0.00;0.00;;;17.70;55.00;;;;;;4854801;29;20065;-61
2020/12/31 04:46:42;;;;;;;4.63;0.00;;;17.70;55.00;;;;;;4837350;29;20566;-60
2020/12/31 04:49:11;;;;;;;0.00;0.00;;;17.70;54.90;;;;;;4854469;29;20128;-61
2020/12/31 04:51:38;;;;;;;0.00;0.00;;;17.70;54.90;;;;;;4853723;29;20524;-60
2020/12/31 04:54:07;;;;;;;2.42;0.03;;;17.70;54.90;;;;;;4852488;29;20514;-61
2020/12/31 04:56:38;;;;;;;0.00;0.00;;;17.70;54.90;;;;;;4851042;29;20173;-61
2020/12/31 04:59:06;;;;;;;0.00;0.00;;;17.70;54.80;;;;;;4855305;29;20076;-63
2020/12/31 05:01:33;;;;;;;2.20;0.10;;;17.70;54.90;;;;;;4848800;29;20472;-63
2020/12/31 05:03:59;;;;;;;2.05;0.20;;;17.70;54.80;;;;;;4854292;29;20068;-62
2020/12/31 05:06:28;;;;;;;0.00;0.00;;;17.70;54.80;;;;;;4852636;29;20060;-62
2020/12/31 05:08:54;;;;;;;1.00;0.10;;;17.70;54.80;;;;;;4853098;29;20077;-61
2020/12/31 05:11:21;;;;;;;0.20;0.00;;;17.70;54.80;;;;;;4850586;29;20046;-61
2020/12/31 05:13:50;;;;;;;0.10;0.00;;;17.70;54.90;;;;;;4853707;29;20077;-61
2020/12/31 05:16:28;;;;;;;0.45;0.45;;;17.70;54.90;;;;;;4858030;29;20098;-64
2020/12/31 05:18:55;;;;;;;0.32;0.00;;;17.70;54.80;;;;;;4857015;29;20080;-61
2020/12/31 05:21:22;;;;;;;1.25;0.00;;;17.70;54.80;;;;;;4855583;29;20054;-62
2020/12/31 05:23:48;;;;;;;0.63;0.00;;;17.70;54.80;;;;;;4856363;29;20925;-61
2020/12/31 05:26:30;;;;;;;0.00;0.00;;;17.70;54.80;;;;;;4856220;29;20049;-61
2020/12/31 05:28:58;;;;;;;0.25;0.25;;;17.70;54.80;;;;;;4851887;29;20046;-61
2020/12/31 05:31:25;;;;;;;0.75;0.00;;;17.70;54.90;;;;;;4856689;29;20062;-61
2020/12/31 05:33:51;;;;;;;0.52;0.00;;;17.70;54.90;;;;;;4856155;29;20056;-64
2020/12/31 05:36:20;;;;;;;0.20;0.00;;;17.70;54.80;;;;;;4855629;29;20475;-62
2020/12/31 05:39:03;;;;;;;0.00;0.00;;;17.70;54.80;;;;;;4855729;29;20041;-61
2020/12/31 05:41:32;;;;;;;0.10;0.00;;;17.70;54.80;;;;;;4855685;29;20460;-60
2020/12/31 05:44:04;;;;;;;0.73;0.00;;;17.70;54.80;;;;;;4854378;29;20117;-63
2020/12/31 05:46:30;;;;;;;0.40;0.10;;;17.80;54.80;;;;;;4856371;29;20049;-61
2020/12/31 05:48:58;;;;;;;0.00;0.00;;;17.70;54.80;;;;;;4856656;29;20046;-62
2020/12/31 05:51:27;;;;;;;0.00;0.00;;;17.70;54.80;;;;;;4855224;29;20137;-66
2020/12/31 05:53:54;;;;;;;0.00;0.00;;;17.70;54.80;;;;;;4855812;29;20460;-61
2020/12/31 05:56:21;;;;;;;2.63;0.08;;;17.70;54.90;;;;;;4856107;29;20057;-62
2020/12/31 05:58:51;;;;;;;0.00;0.00;;;17.70;54.90;;;;;;4855962;29;20562;-62
2020/12/31 06:01:19;;;;;;;0.05;0.00;;;17.80;55.00;;;;;;4856320;29;20057;-61
2020/12/31 06:03:49;;;;;;;1.10;0.00;;;17.70;54.90;;;;;;4855852;29;20044;-62
2020/12/31 06:06:20;;;;;;;2.00;0.00;;;17.80;55.00;;;;;;4855633;29;20046;-61
2020/12/31 06:09:03;;;;;;;1.45;0.00;;;17.80;55.00;;;;;;4855488;29;20065;-62
2020/12/31 06:11:35;;;;;;;0.03;0.00;;;17.80;54.90;;;;;;4855088;29;20422;-61
2020/12/31 06:14:04;;;;;;;0.73;0.00;;;17.80;55.00;;;;;;4854110;29;20049;-62
2020/12/31 06:16:37;;;;;;;0.82;0.10;;;17.80;55.00;;;;;;4856600;29;20543;-62
2020/12/31 06:19:29;;;;;;;1.65;0.00;;;17.80;55.00;;;;;;4856605;29;20502;-65
2020/12/31 06:22:04;;;;;;;0.00;0.00;;;17.80;54.90;;;;;;4856021;29;20073;-62
2020/12/31 06:24:36;;;;;;;0.00;0.00;;;17.80;55.00;;;;;;4855564;29;20058;-61
2020/12/31 06:27:08;;;;;;;0.00;0.00;;;17.70;55.00;;;;;;4853881;29;20041;-63
2020/12/31 06:29:43;;;;;;;1.02;0.10;;;17.80;55.10;;;;;;4855349;29;20050;-61
2020/12/31 06:32:17;;;;;;;0.00;0.00;;;17.80;55.10;;;;;;4855601;29;20593;-61
2020/12/31 06:34:44;;;;;;;0.00;0.00;;;17.70;55.00;;;;;;4853717;29;20526;-63
2020/12/31 06:37:12;;;;;;;0.17;0.00;;;17.80;55.00;;;;;;4855860;29;20136;-63
2020/12/31 06:39:40;;;;;;;0.03;0.00;;;17.80;55.00;;;;;;4853129;29;20049;-62
2020/12/31 06:42:06;;;;;;;0.10;0.00;;;17.80;55.00;;;;;;4855582;29;20052;-61
2020/12/31 06:44:33;;;;;;;0.05;0.00;;;17.80;55.00;;;;;;4855594;29;20061;-63
2020/12/31 06:47:01;;;;;;;0.00;0.00;;;17.80;55.00;;;;;;4853471;29;20072;-62
2020/12/31 06:49:51;;;;;;;0.38;0.00;;;17.80;54.90;;;;;;4859133;29;20065;-62
2020/12/31 06:52:19;;;;;;;0.75;0.00;;;17.80;54.80;;;;;;4859846;29;20488;-64
2020/12/31 06:54:45;;;;;;;0.00;0.00;;;17.80;54.90;;;;;;4859045;29;20598;-62
2020/12/31 06:57:12;;;;;;;1.45;0.00;;;17.80;54.90;;;;;;4858798;29;20414;-61
2020/12/31 06:59:45;;;;;;;0.10;0.00;;;17.80;54.80;;;;;;4855316;29;20061;-62
2020/12/31 07:02:22;;;;;;;0.32;0.00;;;17.80;54.80;;;;;;4858560;29;20052;-61
2020/12/31 07:04:50;;;;;;;0.10;0.00;;;17.80;54.80;;;;;;4857632;29;20064;-62
2020/12/31 07:07:27;;;;;;;1.02;0.00;;;17.80;54.80;;;;;;4859744;29;20061;-62
2020/12/31 07:09:55;;;;;;;0.45;0.45;;;17.80;54.80;;;;;;4858342;29;20081;-63
2020/12/31 07:12:33;;;;;;;0.08;0.00;;;17.80;54.80;;;;;;4856237;29;20067;-62
2020/12/31 07:14:59;;;;;;;0.30;0.00;;;17.80;54.80;;;;;;4859106;29;20087;-62
2020/12/31 07:17:33;;;;;;;0.85;0.00;;;17.80;54.80;;;;;;4841721;29;20579;-62
2020/12/31 07:20:02;;;;;;;0.30;0.00;;;17.80;54.80;;;;;;4858335;29;20487;-63
2020/12/31 07:22:29;;;;;;;0.43;0.00;;;17.80;54.80;;;;;;4859218;29;20049;-66
2020/12/31 07:25:00;;;;;;;0.00;0.00;;;17.80;54.80;;;;;;4858904;29;20057;-62
2020/12/31 07:27:30;;;;;;;0.45;0.10;;;17.80;54.80;;;;;;4856541;29;20054;-61
2020/12/31 07:30:14;;;;;;;1.48;0.00;;;17.80;54.80;;;;;;4857369;29;20049;-61
2020/12/31 07:32:59;;;;;;;0.00;0.00;;;17.80;54.80;;;;;;4857569;29;20681;-65
2020/12/31 07:35:32;;;;;;;0.20;0.00;;;17.80;54.80;;;;;;4856292;29;20056;-61
2020/12/31 07:38:00;;;;;;;2.45;0.00;;;17.80;54.90;;;;;;4857965;29;20053;-61
2020/12/31 07:40:32;;;;;;;0.00;0.00;;;17.80;54.90;;;;;;4857881;29;20129;-65
2020/12/31 07:42:59;;;;;;;1.27;0.00;;;17.80;55.00;;;;;;4859005;29;20064;-62
2020/12/31 07:45:27;;;;;;;0.00;0.00;;;17.80;55.00;;;;;;4858330;29;20125;-61
2020/12/31 07:47:55;;;;;;;0.80;0.00;;;17.80;55.60;;;;;;4857809;29;20677;-62
2020/12/31 07:50:22;;;;;;;1.65;0.00;;;17.80;55.00;;;;;;4858305;29;20178;-61
2020/12/31 07:52:51;;;;;;;0.00;0.00;;;17.80;55.00;;;;;;4857862;29;20534;-63
2020/12/31 07:55:18;;;;;;;4.28;0.00;;;17.80;54.90;;;;;;4859488;29;20078;-61
2020/12/31 07:57:46;;;;;;;0.00;0.00;;;17.80;55.00;;;;;;4858234;29;20054;-61
2020/12/31 08:00:15;;;;;;;0.00;0.00;;;17.80;54.80;;;;;;4856621;29;20487;-63
2020/12/31 08:02:46;;;;;;;1.65;0.00;;;17.80;54.80;;;;;;4857720;29;20046;-63
2020/12/31 08:05:14;;;;;;;0.00;0.00;;;17.80;54.90;;;;;;4858226;29;20515;-63
2020/12/31 08:07:41;;;;;;;0.00;0.00;;;17.80;55.10;;;;;;4857612;29;20429;-62
2020/12/31 08:10:10;;;;;;;0.00;0.00;;;17.80;54.90;;;;;;4858837;29;20058;-62
2020/12/31 08:12:39;;;;;;;0.00;0.00;;;17.80;54.80;;;;;;4853721;29;20189;-61
2020/12/31 08:15:07;;;;;;;0.00;0.00;;;17.80;54.90;;;;;;4855230;29;20136;-61
2020/12/31 08:17:34;;;;;;;0.00;0.00;;;17.80;55.00;;;;;;4850266;29;20549;-62
2020/12/31 08:20:03;;;;;;;4.75;0.00;;;17.80;55.10;;;;;;4856359;29;20113;-62
2020/12/31 08:22:34;;;;;;;0.00;0.00;;;17.90;55.20;;;;;;4856483;29;20414;-61
2020/12/31 08:25:05;;;;;;;0.00;0.00;;;17.80;55.40;;;;;;4856903;29;20502;-59
2020/12/31 08:27:38;;;;;;;5.72;0.08;;;17.90;55.40;;;;;;4840222;29;20418;-61
2020/12/31 08:30:09;;;;;;;8.60;0.20;;;17.90;55.50;;;;;;4856491;29;20082;-60
2020/12/31 08:32:50;;;;;;;4.65;0.10;;;17.90;55.50;;;;;;4856639;29;20077;-58
2020/12/31 08:35:23;;;;;;;3.92;0.10;;;17.90;55.70;;;;;;4852956;29;20050;-49
2020/12/31 08:38:05;;;;;;;2.60;0.00;;;17.90;56.00;;;;;;4839324;29;20056;-50
2020/12/31 08:40:33;;;;;;;2.65;0.10;;;17.90;56.20;;;;;;4856229;29;20063;-52
2020/12/31 08:43:01;;;;;;;2.25;0.00;;;17.90;56.30;;;;;;4840727;29;20140;-49
2020/12/31 08:45:30;;;;;;;8.48;0.10;;;17.90;56.40;;;;;;4856314;29;20538;-50
2020/12/31 08:48:13;;;;;;;0.30;0.30;;;18.00;56.70;;;;;;4856201;29;20487;-52
2020/12/31 08:50:41;;;;;;;5.65;0.10;;;18.00;56.70;;;;;;4846910;29;20049;-49
2020/12/31 08:53:08;;;;;;;1.75;0.08;;;18.00;56.70;;;;;;4855425;29;20048;-50
2020/12/31 08:55:36;;;;;;;0.60;0.10;;;18.00;56.70;;;;;;4856257;29;20049;-48
2020/12/31 08:58:17;;;;;;;4.68;0.47;;;18.00;56.70;;;;;;4854628;29;20133;-52
2020/12/31 09:00:44;;;;;;;4.80;0.10;;;18.10;56.90;;;;;;4853539;29;20363;-51
2020/12/31 09:03:18;;;;;;;1.63;0.10;;;18.10;56.90;;;;;;4855697;29;20546;-48
2020/12/31 09:05:54;;;;;;;2.47;0.10;;;18.10;56.90;;;;;;4855803;29;20052;-50
2020/12/31 09:08:21;;;;;;;2.25;0.10;;;18.10;57.00;;;;;;4856000;29;20053;-55
2020/12/31 09:10:47;;;;;;;3.33;0.20;;;18.10;56.90;;;;;;4855656;29;20054;-54
2020/12/31 09:13:20;;;;;;;4.97;0.10;;;18.20;57.10;;;;;;4856846;29;20064;-56
2020/12/31 09:15:47;;;;;;;1.55;0.20;;;18.20;57.20;;;;;;4855624;29;20049;-57
2020/12/31 09:18:18;;;;;;;3.70;0.20;;;18.20;57.10;;;;;;4855864;29;20061;-59
2020/12/31 09:20:46;;;;;;;5.63;0.30;;;18.20;57.10;;;;;;4853774;29;20104;-57
2020/12/31 09:23:13;;;;;;;8.27;0.28;;;18.20;57.00;;;;;;4853220;29;20609;-55
2020/12/31 09:25:49;;;;;;;4.55;0.10;;;18.30;57.10;;;;;;4853448;29;20104;-55
2020/12/31 09:28:17;;;;;;;26.15;1.58;;;18.30;57.10;;;;;;4854092;29;20463;-56
2020/12/31 09:30:45;;;;;;;7.75;0.30;;;18.30;53.60;;;;;;4853313;29;20056;-56
2020/12/31 09:33:16;;;;;;;45.92;2.80;;;18.30;54.20;;;;;;4853284;29;20140;-62
2020/12/31 09:35:45;;;;;;;11.30;1.10;;;18.30;54.80;;;;;;4852611;29;20048;-56
2020/12/31 09:38:12;;;;;;;10.93;1.52;;;18.30;55.30;;;;;;4836333;29;20148;-57
2020/12/31 09:40:40;;;;;;;13.85;0.32;;;18.30;55.50;;;;;;4852756;29;20061;-56
2020/12/31 09:43:07;;;;;;;20.98;0.95;;;18.30;55.70;;;;;;4853888;29;20057;-60
2020/12/31 09:45:34;;;;;;;9.52;1.50;;;18.30;55.70;;;;;;4853413;29;20069;-63
2020/12/31 09:48:02;;;;;;;7.18;0.10;;;18.30;55.60;;;;;;4853133;29;20049;-50
2020/12/31 09:50:30;;;;;;;4.22;0.20;;;18.40;56.30;;;;;;4853678;29;20045;-49
2020/12/31 09:52:58;;;;;;;12.15;1.35;;;18.40;56.20;;;;;;4855216;29;20097;-51
2020/12/31 09:55:26;;;;;;;12.88;0.47;;;18.40;56.30;;;;;;4856696;29;20049;-46
2020/12/31 09:57:53;;;;;;;6.03;1.10;;;18.50;56.30;;;;;;4855121;29;20049;-47
2020/12/31 10:00:20;;;;;;;1.45;0.30;;;18.50;52.60;;;;;;4855457;29;20447;-46
2020/12/31 10:02:46;;;;;;;4.78;0.32;;;18.50;51.00;;;;;;4854737;29;20064;-48
2020/12/31 10:05:14;;;;;;;9.73;0.50;;;18.50;50.10;;;;;;4855534;29;20049;-48
2020/12/31 10:07:42;;;;;;;1.65;0.28;;;18.50;49.00;;;;;;4855510;29;20109;-51
2020/12/31 10:10:08;;;;;;;0.60;0.20;;;18.40;48.10;;;;;;4856312;29;20057;-49
2020/12/31 10:12:35;;;;;;;0.77;0.70;;;18.40;47.50;;;;;;4854682;29;20054;-50
2020/12/31 10:15:02;;;;;;;0.65;0.20;;;18.40;47.00;;;;;;4855317;29;20046;-45
2020/12/31 10:17:29;;;;;;;1.95;0.30;;;18.40;46.70;;;;;;4855137;29;20041;-46
2020/12/31 10:19:57;;;;;;;0.85;0.52;;;18.40;46.50;;;;;;4855176;29;20042;-50
2020/12/31 10:22:25;;;;;;;3.83;0.50;;;18.30;46.20;;;;;;4856808;29;20049;-48
2020/12/31 10:24:52;;;;;;;0.20;0.10;;;18.30;45.90;;;;;;4841784;29;20136;-49
2020/12/31 10:27:18;;;;;;;2.85;0.98;;;18.20;45.60;;;;;;4858696;29;20056;-48
2020/12/31 10:29:45;;;;;;;7.55;0.40;;;18.20;45.60;;;;;;4841659;29;20116;-49
2020/12/31 10:32:12;;;;;;;0.82;0.38;;;18.10;45.30;;;;;;4859047;29;20048;-47
2020/12/31 10:34:39;;;;;;;2.05;0.20;;;18.10;47.60;;;;;;4859217;29;20053;-49
2020/12/31 10:37:05;;;;;;;4.70;0.43;;;18.10;48.90;;;;;;4860207;29;20049;-47
2020/12/31 10:39:33;;;;;;;2.63;0.10;;;18.10;49.70;;;;;;4853973;29;20470;-47
2020/12/31 10:42:00;;;;;;;5.57;0.10;;;18.10;50.40;;;;;;4857992;29;20074;-48
2020/12/31 10:44:27;;;;;;;3.28;0.10;;;18.10;50.80;;;;;;4858257;29;20046;-48
2020/12/31 10:46:56;;;;;;;5.53;0.10;;;18.10;51.10;;;;;;4858980;29;20065;-48
2020/12/31 10:49:23;;;;;;;6.18;0.10;;;18.10;51.40;;;;;;4859488;29;20060;-48
2020/12/31 10:51:50;;;;;;;6.03;0.10;;;18.20;51.50;;;;;;4858747;29;20049;-49
2020/12/31 10:54:17;;;;;;;1.73;0.10;;;18.20;51.70;;;;;;4858267;29;20121;-48
2020/12/31 10:56:44;;;;;;;3.72;0.52;;;18.20;51.80;;;;;;4841319;29;20059;-47
2020/12/31 10:59:11;;;;;;;5.40;0.10;;;18.20;51.80;;;;;;4858756;29;20545;-52
2020/12/31 11:01:38;;;;;;;5.18;0.40;;;18.20;51.90;;;;;;4858423;29;20551;-52
2020/12/31 11:04:05;;;;;;;3.30;0.10;;;18.20;51.90;;;;;;4859852;29;20053;-47
2020/12/31 11:06:31;;;;;;;1.27;0.10;;;18.20;51.80;;;;;;4858331;29;20073;-51
2020/12/31 11:08:58;;;;;;;0.35;0.10;;;18.20;51.80;;;;;;4858254;29;20140;-52
2020/12/31 11:11:26;;;;;;;1.00;0.10;;;18.20;51.80;;;;;;4858046;29;20515;-47
2020/12/31 11:13:54;;;;;;;1.25;0.43;;;18.30;51.80;;;;;;4858685;29;20095;-48
2020/12/31 11:16:21;;;;;;;3.08;0.15;;;18.30;51.80;;;;;;4859821;29;20136;-48
2020/12/31 11:18:48;;;;;;;2.92;0.10;;;18.30;51.70;;;;;;4858184;29;20045;-48
2020/12/31 11:21:18;;;;;;;0.57;0.10;;;18.30;51.70;;;;;;4858172;29;20062;-48
2020/12/31 11:23:45;;;;;;;0.95;0.10;;;18.30;51.70;;;;;;4857858;29;20046;-49
2020/12/31 11:26:13;;;;;;;1.65;0.10;;;18.30;51.70;;;;;;4855698;29;20057;-47
2020/12/31 11:28:40;;;;;;;2.08;0.10;;;18.30;51.60;;;;;;4857314;29;20534;-50
2020/12/31 11:31:09;;;;;;;2.67;0.20;;;18.30;51.80;;;;;;4857059;29;20533;-51
2020/12/31 11:33:36;;;;;;;0.55;0.10;;;18.30;52.00;;;;;;4855705;29;20129;-48
2020/12/31 11:36:04;;;;;;;2.30;0.10;;;18.30;52.00;;;;;;4854321;29;20463;-48
2020/12/31 11:38:31;;;;;;;1.42;0.30;;;18.40;52.10;;;;;;4855785;29;20053;-52
2020/12/31 11:40:58;;;;;;;2.17;0.08;;;18.30;52.30;;;;;;4852354;29;20110;-48
2020/12/31 11:43:24;;;;;;;0.63;0.20;;;18.40;52.30;;;;;;4848802;29;20192;-49
2020/12/31 11:45:51;;;;;;;0.95;0.10;;;18.40;52.40;;;;;;4848491;29;20041;-48
2020/12/31 11:48:18;;;;;;;3.55;0.10;;;18.40;52.60;;;;;;4845388;29;20046;-52
2020/12/31 11:50:45;;;;;;;1.20;0.57;;;18.40;52.70;;;;;;4843940;29;20080;-50
2020/12/31 11:53:12;;;;;;;2.15;0.20;;;18.40;52.70;;;;;;4843785;29;20049;-48
2020/12/31 11:55:38;;;;;;;2.63;0.10;;;18.40;52.70;;;;;;4843170;29;20053;-51
2020/12/31 11:58:05;;;;;;;1.23;0.10;;;18.50;52.70;;;;;;4843729;29;20497;-50
2020/12/31 12:00:32;;;;;;;1.52;0.10;;;18.40;52.80;;;;;;4843419;29;20122;-49
2020/12/31 12:02:58;;;;;;;1.23;0.08;;;18.40;52.80;;;;;;4842951;29;20069;-50
2020/12/31 12:05:26;;;;;;;1.95;0.10;;;18.40;52.90;;;;;;4843077;29;20140;-53
2020/12/31 12:07:52;;;;;;;1.95;0.10;;;18.50;52.90;;;;;;4844174;29;20120;-49
2020/12/31 12:10:19;;;;;;;0.70;0.10;;;18.50;52.90;;;;;;4834617;29;20065;-54
2020/12/31 12:12:46;;;;;;;0.32;0.32;;;18.50;53.00;;;;;;4853344;29;20157;-50
2020/12/31 12:15:13;;;;;;;1.95;0.10;;;18.50;53.40;;;;;;4855224;29;20046;-51
2020/12/31 12:17:40;;;;;;;2.65;0.10;;;18.50;53.60;;;;;;4854035;29;20080;-50
2020/12/31 12:20:10;;;;;;;1.50;0.10;;;18.50;53.90;;;;;;4857083;29;20049;-49
2020/12/31 12:22:39;;;;;;;5.15;0.30;;;18.50;53.90;;;;;;4856163;29;20042;-50
2020/12/31 12:25:07;;;;;;;0.63;0.10;;;18.50;53.70;;;;;;4857767;29;20132;-48
2020/12/31 12:27:34;;;;;;;0.10;0.10;;;18.50;53.50;;;;;;4856430;29;20041;-51
2020/12/31 12:30:01;;;;;;;1.45;0.10;;;18.50;53.30;;;;;;4836994;29;20078;-49
2020/12/31 12:32:27;;;;;;;2.70;0.10;;;18.50;53.50;;;;;;4849470;29;20052;-51
2020/12/31 12:34:54;;;;;;;0.65;0.50;;;18.50;53.80;;;;;;4857024;29;20054;-49
2020/12/31 12:37:22;;;;;;;2.60;0.30;;;18.50;54.30;;;;;;4858140;29;20053;-50
2020/12/31 12:39:49;;;;;;;1.75;0.35;;;18.60;54.30;;;;;;4856830;29;20073;-52
2020/12/31 12:42:16;;;;;;;0.55;0.50;;;18.60;49.80;;;;;;4856635;29;20057;-49
2020/12/31 12:44:42;;;;;;;0.45;0.28;;;18.50;47.00;;;;;;4856788;29;20045;-51
2020/12/31 12:47:09;;;;;;;0.70;0.43;;;18.50;45.30;;;;;;4840003;29;20078;-56
2020/12/31 12:49:36;;;;;;;0.80;0.32;;;18.50;44.20;;;;;;4857373;29;20049;-49
2020/12/31 12:52:03;;;;;;;1.77;0.15;;;18.40;44.90;;;;;;4857698;29;20049;-48